createdAt,value
2023-05-13T00:01:43.409Z,9.74
2023-05-13T00:04:13.552Z,9.77
2023-05-13T00:06:43.817Z,9.72
2023-05-13T00:09:13.931Z,9.75
2023-05-13T00:11:48.804Z,9.77
2023-05-13T00:14:18.878Z,9.79
2023-05-13T00:16:52.001Z,9.76
2023-05-13T00:19:25.455Z,9.73
2023-05-13T00:21:57.879Z,9.72
2023-05-13T00:24:28.737Z,9.74
2023-05-13T00:27:01.466Z,9.79
2023-05-13T00:29:31.762Z,9.77
2023-05-13T00:32:02.120Z,9.70
2023-05-13T00:34:32.764Z,9.73
2023-05-13T00:37:02.930Z,9.70
2023-05-13T00:39:33.723Z,9.68
2023-05-13T00:42:10.222Z,9.71
2023-05-13T00:44:41.089Z,9.71
2023-05-13T00:47:16.431Z,9.70
2023-05-13T00:49:48.945Z,9.67
2023-05-13T00:52:19.214Z,9.69
2023-05-13T00:54:49.325Z,9.71
2023-05-13T00:57:22.225Z,9.70
2023-05-13T00:59:52.501Z,9.70
2023-05-13T01:02:30.640Z,9.73
2023-05-13T01:05:13.075Z,9.70
2023-05-13T01:07:53.576Z,9.69
2023-05-13T01:10:33.859Z,9.68
2023-05-13T01:13:12.499Z,9.64
2023-05-13T01:15:47.585Z,9.65
2023-05-13T01:18:21.141Z,9.64
2023-05-13T01:20:51.351Z,9.64
2023-05-13T01:23:24.223Z,9.65
2023-05-13T01:25:54.365Z,9.67
2023-05-13T01:28:25.213Z,9.57
2023-05-13T01:30:58.537Z,9.61
2023-05-13T01:33:30.195Z,9.57
2023-05-13T01:36:01.019Z,9.62
2023-05-13T01:38:34.908Z,9.63
2023-05-13T01:41:05.467Z,9.64
2023-05-13T01:43:35.676Z,9.67
2023-05-13T01:46:05.935Z,9.63
2023-05-13T01:48:36.075Z,9.63
2023-05-13T01:51:06.766Z,9.62
2023-05-13T01:53:39.609Z,9.63
2023-05-13T01:56:12.816Z,9.59
2023-05-13T01:58:43.054Z,9.55
2023-05-13T02:01:13.376Z,9.52
2023-05-13T02:03:43.640Z,9.57
2023-05-13T02:06:14.039Z,9.53
2023-05-13T02:08:47.372Z,9.60
2023-05-13T02:11:17.520Z,9.55
2023-05-13T02:13:48.515Z,9.55
2023-05-13T02:16:20.101Z,9.47
2023-05-13T02:18:50.506Z,9.54
2023-05-13T02:21:20.715Z,9.50
2023-05-13T02:23:53.423Z,9.52
2023-05-13T02:26:24.447Z,9.54
2023-05-13T02:28:54.588Z,9.54
2023-05-13T02:31:24.823Z,9.53
2023-05-13T02:33:54.964Z,9.47
2023-05-13T02:36:25.303Z,9.47
2023-05-13T02:38:58.672Z,9.50
2023-05-13T02:41:29.000Z,9.50
2023-05-13T02:43:59.119Z,9.50
2023-05-13T02:46:29.789Z,9.44
2023-05-13T02:49:00.035Z,9.42
2023-05-13T02:51:33.287Z,9.40
2023-05-13T02:54:06.153Z,9.37
2023-05-13T02:56:37.349Z,9.39
2023-05-13T02:59:07.528Z,9.42
2023-05-13T03:01:37.768Z,9.40
2023-05-13T03:04:08.262Z,9.41
2023-05-13T03:06:38.357Z,9.44
2023-05-13T03:09:11.164Z,9.43
2023-05-13T03:11:41.329Z,9.44
2023-05-13T03:14:11.478Z,9.41
2023-05-13T03:16:41.944Z,9.37
2023-05-13T03:19:12.120Z,9.49
2023-05-13T03:21:42.435Z,9.42
2023-05-13T03:24:18.461Z,9.40
2023-05-13T03:26:48.698Z,9.42
2023-05-13T03:29:18.885Z,9.36
2023-05-13T03:31:49.223Z,9.37
2023-05-13T03:34:19.464Z,9.31
2023-05-13T03:36:49.648Z,9.33
2023-05-13T03:39:22.603Z,9.30
2023-05-13T03:41:52.778Z,9.32
2023-05-13T03:44:23.153Z,9.32
2023-05-13T03:46:53.413Z,9.31
2023-05-13T03:49:23.655Z,9.28
2023-05-13T03:51:53.749Z,9.26
2023-05-13T03:54:26.588Z,9.23
2023-05-13T03:56:56.747Z,9.26
2023-05-13T03:59:27.251Z,9.25
2023-05-13T04:01:57.428Z,9.33
2023-05-13T04:04:27.716Z,9.32
2023-05-13T04:06:57.896Z,9.33
2023-05-13T04:09:30.712Z,9.36
2023-05-13T04:12:00.845Z,9.33
2023-05-13T04:14:31.221Z,9.36
2023-05-13T04:17:01.383Z,9.34
2023-05-13T04:19:31.701Z,9.30
2023-05-13T04:22:04.271Z,9.34
2023-05-13T04:24:37.027Z,9.29
2023-05-13T04:27:07.515Z,9.41
2023-05-13T04:29:37.700Z,9.47
2023-05-13T04:32:08.580Z,9.49
2023-05-13T04:34:39.027Z,9.51
2023-05-13T04:37:09.300Z,9.50
2023-05-13T04:39:42.246Z,9.39
2023-05-13T04:42:12.564Z,9.45
2023-05-13T04:44:42.851Z,9.55
2023-05-13T04:47:13.072Z,9.56
2023-05-13T04:49:43.338Z,9.56
2023-05-13T04:52:14.610Z,9.57
2023-05-13T04:54:47.312Z,9.56
2023-05-13T04:57:17.478Z,9.58
2023-05-13T04:59:47.693Z,9.63
2023-05-13T05:02:19.300Z,9.59
2023-05-13T05:04:49.631Z,9.66
2023-05-13T05:07:20.067Z,9.64
2023-05-13T05:09:53.062Z,9.69
2023-05-13T05:12:23.496Z,9.68
2023-05-13T05:14:53.864Z,9.81
2023-05-13T05:17:24.369Z,9.94
2023-05-13T05:19:55.669Z,9.90
2023-05-13T05:22:25.791Z,10.01
2023-05-13T05:24:58.558Z,10.06
2023-05-13T05:27:29.006Z,10.25
2023-05-13T05:29:59.203Z,10.22
2023-05-13T05:32:29.812Z,10.39
2023-05-13T05:35:02.349Z,10.52
2023-05-13T05:37:33.297Z,10.73
2023-05-13T05:40:06.990Z,10.69
2023-05-13T05:42:40.179Z,10.67
2023-05-13T05:45:13.072Z,10.58
2023-05-13T05:47:43.583Z,10.53
2023-05-13T05:50:15.304Z,10.61
2023-05-13T05:52:45.515Z,10.51
2023-05-13T05:55:19.803Z,10.59
2023-05-13T05:57:50.198Z,10.52
2023-05-13T06:00:22.125Z,10.57
2023-05-13T06:02:52.559Z,10.57
2023-05-13T06:05:22.919Z,10.62
2023-05-13T06:07:53.155Z,10.74
2023-05-13T06:10:26.255Z,10.86
2023-05-13T06:12:57.098Z,10.81
2023-05-13T06:15:27.661Z,10.85
2023-05-13T06:17:57.987Z,10.93
2023-05-13T06:20:28.764Z,11.06
2023-05-13T06:23:00.314Z,11.41
2023-05-13T06:25:33.165Z,11.52
2023-05-13T06:28:03.559Z,11.69
2023-05-13T06:30:34.411Z,11.47
2023-05-13T06:33:04.689Z,11.54
2023-05-13T06:35:34.877Z,11.76
2023-05-13T06:38:07.796Z,11.75
2023-05-13T06:40:41.483Z,11.67
2023-05-13T06:43:12.817Z,11.80
2023-05-13T06:45:46.798Z,11.81
2023-05-13T06:48:17.200Z,11.93
2023-05-13T06:50:47.794Z,11.97
2023-05-13T06:53:17.982Z,12.11
2023-05-13T06:55:50.808Z,12.09
2023-05-13T06:58:21.327Z,12.24
2023-05-13T07:00:51.764Z,12.49
2023-05-13T07:03:21.973Z,12.48
2023-05-13T07:05:52.315Z,12.47
2023-05-13T07:08:22.487Z,12.47
2023-05-13T07:10:55.273Z,12.49
2023-05-13T07:13:25.528Z,12.58
2023-05-13T07:15:55.900Z,12.53
2023-05-13T07:18:27.126Z,12.37
2023-05-13T07:20:57.460Z,12.65
2023-05-13T07:23:27.999Z,12.48
2023-05-13T07:26:00.729Z,12.82
2023-05-13T07:28:30.953Z,13.01
2023-05-13T07:31:03.082Z,12.78
2023-05-13T07:33:33.338Z,12.61
2023-05-13T07:36:03.471Z,13.05
2023-05-13T07:38:33.575Z,13.03
2023-05-13T07:41:06.332Z,13.31
2023-05-13T07:43:36.558Z,13.45
2023-05-13T07:46:06.757Z,13.49
2023-05-13T07:48:36.927Z,13.13
2023-05-13T07:51:07.890Z,12.92
2023-05-13T07:53:38.187Z,13.10
2023-05-13T07:56:11.144Z,13.36
2023-05-13T07:58:41.286Z,13.34
2023-05-13T08:01:11.682Z,13.23
2023-05-13T08:03:42.000Z,13.31
2023-05-13T08:06:12.313Z,13.30
2023-05-13T08:08:42.436Z,13.31
2023-05-13T08:11:15.318Z,13.22
2023-05-13T08:13:45.695Z,13.03
2023-05-13T08:16:16.032Z,13.10
2023-05-13T08:18:46.313Z,13.02
2023-05-13T08:21:17.036Z,13.01
2023-05-13T08:23:47.248Z,13.18
2023-05-13T08:26:20.080Z,13.09
2023-05-13T08:28:54.330Z,13.24
2023-05-13T08:31:25.558Z,13.03
2023-05-13T08:33:55.915Z,13.14
2023-05-13T08:36:26.253Z,13.32
2023-05-13T08:38:56.401Z,13.32
2023-05-13T08:41:30.003Z,13.51
2023-05-13T08:44:00.700Z,13.32
2023-05-13T08:46:32.630Z,13.39
2023-05-13T08:49:03.254Z,13.32
2023-05-13T08:51:33.866Z,13.49
2023-05-13T08:54:05.094Z,13.42
2023-05-13T08:56:37.941Z,13.43
2023-05-13T08:59:08.130Z,13.40
2023-05-13T09:01:38.800Z,13.20
2023-05-13T09:04:11.805Z,13.39
2023-05-13T09:06:44.091Z,13.52
2023-05-13T09:09:14.428Z,13.61
2023-05-13T09:11:50.788Z,13.77
2023-05-13T09:14:22.683Z,13.52
2023-05-13T09:16:52.933Z,13.53
2023-05-13T09:19:23.125Z,13.56
2023-05-13T09:21:53.576Z,13.55
2023-05-13T09:24:24.146Z,13.69
2023-05-13T09:26:56.896Z,13.59
2023-05-13T09:29:29.637Z,13.63
2023-05-13T09:32:01.090Z,13.49
2023-05-13T09:34:33.600Z,13.40
2023-05-13T09:37:05.457Z,13.54
2023-05-13T09:39:37.066Z,13.42
2023-05-13T09:42:18.655Z,13.47
2023-05-13T09:44:50.342Z,13.43
2023-05-13T09:47:20.840Z,13.56
2023-05-13T09:49:59.549Z,13.69
2023-05-13T09:52:29.744Z,13.70
2023-05-13T09:55:00.287Z,13.60
2023-05-13T09:57:33.685Z,13.65
2023-05-13T10:00:05.689Z,13.72
2023-05-13T10:02:41.964Z,13.72
2023-05-13T10:05:12.958Z,13.90
2023-05-13T10:07:43.229Z,13.82
2023-05-13T10:10:13.804Z,13.94
2023-05-13T10:12:46.722Z,13.85
2023-05-13T10:15:17.650Z,13.88
2023-05-13T10:17:49.616Z,13.98
2023-05-13T10:20:20.358Z,13.87
2023-05-13T10:22:52.540Z,13.84
2023-05-13T10:25:23.163Z,13.94
2023-05-13T10:27:58.938Z,14.00
2023-05-13T10:30:32.138Z,14.01
2023-05-13T10:33:02.812Z,14.07
2023-05-13T10:35:38.574Z,14.32
2023-05-13T10:38:14.484Z,14.53
2023-05-13T10:41:08.439Z,14.83
2023-05-13T10:43:41.895Z,15.05
2023-05-13T10:46:15.751Z,15.23
2023-05-13T10:48:51.079Z,15.33
2023-05-13T10:51:25.634Z,15.23
2023-05-13T10:53:58.169Z,15.19
2023-05-13T10:56:31.466Z,15.42
2023-05-13T10:59:06.311Z,15.53
2023-05-13T11:01:43.615Z,15.85
2023-05-13T11:04:18.192Z,15.89
2023-05-13T11:06:50.145Z,15.67
2023-05-13T11:09:33.450Z,15.44
2023-05-13T11:12:04.149Z,15.68
2023-05-13T11:14:36.955Z,15.70
2023-05-13T11:17:18.899Z,15.51
2023-05-13T11:19:50.418Z,15.53
2023-05-13T11:22:24.440Z,15.67
2023-05-13T11:25:08.584Z,15.90
2023-05-13T11:27:42.920Z,15.38
2023-05-13T11:30:25.874Z,15.33
2023-05-13T11:32:58.991Z,15.50
2023-05-13T11:35:31.713Z,15.78
2023-05-13T11:38:03.043Z,15.65
2023-05-13T11:40:34.795Z,16.05
2023-05-13T11:43:06.461Z,16.06
2023-05-13T11:45:42.569Z,15.91
2023-05-13T11:48:23.047Z,16.08
2023-05-13T11:50:53.989Z,15.60
2023-05-13T11:53:25.287Z,15.48
2023-05-13T11:55:55.837Z,15.84
2023-05-13T11:58:25.970Z,15.98
2023-05-13T12:00:59.463Z,15.98
2023-05-13T12:03:31.438Z,15.99
2023-05-13T12:06:05.734Z,15.90
2023-05-13T12:08:35.982Z,15.92
2023-05-13T12:11:06.536Z,16.01
2023-05-13T12:13:36.782Z,16.26
2023-05-13T12:16:10.725Z,16.06
2023-05-13T12:18:41.247Z,15.96
2023-05-13T12:21:18.715Z,16.10
2023-05-13T12:23:48.842Z,16.19
2023-05-13T12:26:19.675Z,15.96
2023-05-13T12:28:49.880Z,16.36
2023-05-13T12:31:24.283Z,16.87
2023-05-13T12:33:54.354Z,16.65
2023-05-13T12:36:28.234Z,16.39
2023-05-13T12:39:00.965Z,16.48
2023-05-13T12:41:33.032Z,16.47
2023-05-13T12:44:04.736Z,16.34
2023-05-13T12:46:38.103Z,16.29
2023-05-13T12:49:08.440Z,16.17
2023-05-13T12:51:38.587Z,16.22
2023-05-13T12:54:09.078Z,16.49
2023-05-13T12:56:40.308Z,16.34
2023-05-13T12:59:13.602Z,16.05
2023-05-13T13:01:48.363Z,16.43
2023-05-13T13:04:19.895Z,16.61
2023-05-13T13:06:51.844Z,16.61
2023-05-13T13:09:21.957Z,16.73
2023-05-13T13:11:52.958Z,16.75
2023-05-13T13:14:24.097Z,16.63
2023-05-13T13:16:56.919Z,16.90
2023-05-13T13:19:27.160Z,16.91
2023-05-13T13:21:57.370Z,16.95
2023-05-13T13:24:27.503Z,16.93
2023-05-13T13:26:58.395Z,16.88
2023-05-13T13:29:28.675Z,16.82
2023-05-13T13:32:01.466Z,16.94
2023-05-13T13:34:31.708Z,16.78
2023-05-13T13:37:01.848Z,16.91
2023-05-13T13:39:32.001Z,16.75
2023-05-13T13:42:04.803Z,16.85
2023-05-13T13:44:36.889Z,16.99
2023-05-13T13:47:09.880Z,17.02
2023-05-13T13:49:40.105Z,17.28
2023-05-13T13:52:12.301Z,17.03
2023-05-13T13:54:42.491Z,16.88
2023-05-13T13:57:13.730Z,17.19
2023-05-13T13:59:44.618Z,17.47
2023-05-13T14:02:17.500Z,17.22
2023-05-13T14:04:49.539Z,16.83
2023-05-13T14:07:19.757Z,16.41
2023-05-13T14:09:50.032Z,16.45
2023-05-13T14:12:20.798Z,16.11
2023-05-13T14:14:51.044Z,16.35
2023-05-13T14:17:23.977Z,16.28
2023-05-13T14:19:55.721Z,15.97
2023-05-13T14:22:26.201Z,16.61
2023-05-13T14:24:56.237Z,16.50
2023-05-13T14:27:26.348Z,16.61
2023-05-13T14:29:56.535Z,17.14
2023-05-13T14:32:29.263Z,17.59
2023-05-13T14:34:59.476Z,17.44
2023-05-13T14:37:29.621Z,16.66
2023-05-13T14:40:01.928Z,16.64
2023-05-13T14:42:32.110Z,16.68
2023-05-13T14:45:02.874Z,16.76
2023-05-13T14:47:36.011Z,16.79
2023-05-13T14:50:06.369Z,16.64
2023-05-13T14:52:36.633Z,16.72
2023-05-13T14:55:07.314Z,16.63
2023-05-13T14:57:37.536Z,16.54
2023-05-13T15:00:09.008Z,16.23
2023-05-13T15:02:41.817Z,16.16
2023-05-13T15:05:12.802Z,16.05
2023-05-13T15:07:43.301Z,16.18
2023-05-13T15:10:14.192Z,16.31
2023-05-13T15:12:44.467Z,16.27
2023-05-13T15:15:15.389Z,15.85
2023-05-13T15:17:48.240Z,15.86
2023-05-13T15:20:18.462Z,15.89
2023-05-13T15:22:48.544Z,16.10
2023-05-13T15:25:18.938Z,16.04
2023-05-13T15:27:50.068Z,15.84
2023-05-13T15:30:20.638Z,15.79
2023-05-13T15:32:53.604Z,15.94
2023-05-13T15:35:24.990Z,15.69
2023-05-13T15:37:58.881Z,15.93
2023-05-13T15:40:30.573Z,16.13
2023-05-13T15:43:01.320Z,15.93
2023-05-13T15:45:32.597Z,15.86
2023-05-13T15:48:08.669Z,15.87
2023-05-13T15:50:39.279Z,15.63
2023-05-13T15:53:13.995Z,15.69
2023-05-13T15:55:44.302Z,15.63
2023-05-13T15:58:14.483Z,15.71
2023-05-13T16:00:45.090Z,15.60
2023-05-13T16:03:17.918Z,15.58
2023-05-13T16:05:48.079Z,15.64
2023-05-13T16:08:18.926Z,15.62
2023-05-13T16:10:49.202Z,15.39
2023-05-13T16:13:19.348Z,15.39
2023-05-13T16:15:50.010Z,15.53
2023-05-13T16:18:22.785Z,15.34
2023-05-13T16:20:53.171Z,15.35
2023-05-13T16:23:23.376Z,15.30
2023-05-13T16:25:53.634Z,15.35
2023-05-13T16:28:23.831Z,15.22
2023-05-13T16:30:56.266Z,15.06
2023-05-13T16:33:32.273Z,15.05
2023-05-13T16:36:02.527Z,14.97
2023-05-13T16:38:35.508Z,14.87
2023-05-13T16:41:05.975Z,14.96
2023-05-13T16:43:36.157Z,15.06
2023-05-13T16:46:08.489Z,15.16
2023-05-13T16:48:41.515Z,14.96
2023-05-13T16:51:14.638Z,14.84
2023-05-13T16:53:44.946Z,14.91
2023-05-13T16:56:15.128Z,14.98
2023-05-13T16:58:45.323Z,14.81
2023-05-13T17:01:16.835Z,14.81
2023-05-13T17:03:49.757Z,14.68
2023-05-13T17:06:19.859Z,14.58
2023-05-13T17:08:50.301Z,14.54
2023-05-13T17:11:21.600Z,14.47
2023-05-13T17:13:51.811Z,14.47
2023-05-13T17:16:22.140Z,14.23
2023-05-13T17:18:56.465Z,14.23
2023-05-13T17:21:28.889Z,14.12
2023-05-13T17:23:59.072Z,14.14
2023-05-13T17:26:29.390Z,14.04
2023-05-13T17:28:59.704Z,13.96
2023-05-13T17:31:30.006Z,13.79
2023-05-13T17:34:06.978Z,13.79
2023-05-13T17:36:37.125Z,13.70
2023-05-13T17:39:07.701Z,13.75
2023-05-13T17:41:37.935Z,13.70
2023-05-13T17:44:08.534Z,13.56
2023-05-13T17:46:38.719Z,13.58
2023-05-13T17:49:11.644Z,13.44
2023-05-13T17:51:42.220Z,13.41
2023-05-13T17:54:13.912Z,13.32
2023-05-13T17:56:44.137Z,13.24
2023-05-13T17:59:15.901Z,13.27
2023-05-13T18:01:46.104Z,13.10
2023-05-13T18:04:19.242Z,13.13
2023-05-13T18:06:50.220Z,13.02
2023-05-13T18:09:20.401Z,12.91
2023-05-13T18:11:50.641Z,12.91
2023-05-13T18:14:21.385Z,12.78
2023-05-13T18:16:51.557Z,12.67
2023-05-13T18:19:24.377Z,12.75
2023-05-13T18:21:54.517Z,12.64
2023-05-13T18:24:24.771Z,12.52
2023-05-13T18:26:54.979Z,12.58
2023-05-13T18:29:25.357Z,12.48
2023-05-13T18:31:55.595Z,12.37
2023-05-13T18:34:28.633Z,12.40
2023-05-13T18:36:58.705Z,12.28
2023-05-13T18:39:28.819Z,12.26
2023-05-13T18:41:58.991Z,12.11
2023-05-13T18:44:29.134Z,12.14
2023-05-13T18:47:02.123Z,12.10
2023-05-13T18:49:36.941Z,12.14
2023-05-13T18:52:07.583Z,12.06
2023-05-13T18:54:38.703Z,12.06
2023-05-13T18:57:09.412Z,12.04
2023-05-13T18:59:39.608Z,12.01
2023-05-13T19:02:10.084Z,11.87
2023-05-13T19:04:43.060Z,11.90
2023-05-13T19:07:13.342Z,11.83
2023-05-13T19:09:43.527Z,11.77
2023-05-13T19:12:13.725Z,11.75
2023-05-13T19:14:43.871Z,11.82
2023-05-13T19:17:14.322Z,11.71
2023-05-13T19:19:47.120Z,11.77
2023-05-13T19:22:17.258Z,11.75
2023-05-13T19:24:47.397Z,11.75
2023-05-13T19:27:17.597Z,11.69
2023-05-13T19:29:47.717Z,11.68
2023-05-13T19:32:20.209Z,11.67
2023-05-13T19:34:53.117Z,11.58
2023-05-13T19:37:23.285Z,11.48
2023-05-13T19:39:53.486Z,11.46
2023-05-13T19:42:23.943Z,11.48
2023-05-13T19:44:54.077Z,11.40
2023-05-13T19:47:26.938Z,11.38
2023-05-13T19:49:59.775Z,11.42
2023-05-13T19:52:29.961Z,11.39
2023-05-13T19:55:00.053Z,11.30
2023-05-13T19:57:30.383Z,11.30
2023-05-13T20:00:01.638Z,11.38
2023-05-13T20:02:31.874Z,11.28
2023-05-13T20:05:04.733Z,11.25
2023-05-13T20:07:35.035Z,11.25
2023-05-13T20:10:05.322Z,11.25
2023-05-13T20:12:35.754Z,11.20
2023-05-13T20:15:06.883Z,11.21
2023-05-13T20:17:37.441Z,11.24
2023-05-13T20:20:11.768Z,11.24
2023-05-13T20:22:41.921Z,11.20
2023-05-13T20:25:13.166Z,11.13
2023-05-13T20:27:43.371Z,11.17
2023-05-13T20:30:15.458Z,11.14
2023-05-13T20:32:45.741Z,11.18
2023-05-13T20:35:18.563Z,11.13
2023-05-13T20:37:48.614Z,11.19
2023-05-13T20:40:18.935Z,11.21
2023-05-13T20:42:49.088Z,11.17
2023-05-13T20:45:20.408Z,11.10
2023-05-13T20:47:51.814Z,11.07
2023-05-13T20:50:24.851Z,11.05
2023-05-13T20:52:55.125Z,11.12
2023-05-13T20:55:25.866Z,11.10
2023-05-13T20:57:56.100Z,11.15
2023-05-13T21:00:29.104Z,11.11
2023-05-13T21:02:59.298Z,11.05
2023-05-13T21:05:32.115Z,11.02
2023-05-13T21:08:02.263Z,11.03
2023-05-13T21:10:32.511Z,10.97
2023-05-13T21:13:05.083Z,11.03
2023-05-13T21:15:36.105Z,11.02
2023-05-13T21:18:06.472Z,11.05
2023-05-13T21:20:39.252Z,11.03
2023-05-13T21:23:09.466Z,11.06
2023-05-13T21:25:39.615Z,11.08
2023-05-13T21:28:10.156Z,11.04
2023-05-13T21:30:40.893Z,11.07
2023-05-13T21:33:11.157Z,11.02
2023-05-13T21:35:43.859Z,10.97
2023-05-13T21:38:14.037Z,11.00
2023-05-13T21:40:44.616Z,11.02
2023-05-13T21:43:14.819Z,11.06
2023-05-13T21:45:45.399Z,11.04
2023-05-13T21:48:15.691Z,11.07
2023-05-13T21:50:48.631Z,11.07
2023-05-13T21:53:18.939Z,11.11
2023-05-13T21:55:49.091Z,11.06
2023-05-13T21:58:21.848Z,11.07
2023-05-13T22:00:53.958Z,11.13
2023-05-13T22:03:24.365Z,11.08
2023-05-13T22:05:57.116Z,11.00
2023-05-13T22:08:27.254Z,10.99
2023-05-13T22:10:57.461Z,11.02
2023-05-13T22:13:27.651Z,10.95
2023-05-13T22:15:57.926Z,10.93
2023-05-13T22:18:28.384Z,10.91
2023-05-13T22:21:01.815Z,10.88
2023-05-13T22:23:31.825Z,10.88
2023-05-13T22:26:02.019Z,10.86
2023-05-13T22:28:32.094Z,10.93
2023-05-13T22:31:02.518Z,10.83
2023-05-13T22:33:32.685Z,10.78
2023-05-13T22:36:05.417Z,10.85
2023-05-13T22:38:35.662Z,10.88
2023-05-13T22:41:06.137Z,10.85
2023-05-13T22:43:36.362Z,10.84
2023-05-13T22:46:07.054Z,10.76
2023-05-13T22:48:37.276Z,10.69
2023-05-13T22:51:10.224Z,10.72
2023-05-13T22:53:40.341Z,10.73
2023-05-13T22:56:10.981Z,10.75
2023-05-13T22:58:41.140Z,10.78
2023-05-13T23:01:11.479Z,10.77
2023-05-13T23:03:41.820Z,10.78
2023-05-13T23:06:14.622Z,10.77
2023-05-13T23:08:44.812Z,10.78
2023-05-13T23:11:15.018Z,10.80
2023-05-13T23:13:45.203Z,10.83
2023-05-13T23:16:15.455Z,10.78
2023-05-13T23:18:45.676Z,10.72
2023-05-13T23:21:18.362Z,10.66
2023-05-13T23:23:50.358Z,10.71
2023-05-13T23:26:20.489Z,10.69
2023-05-13T23:28:50.635Z,10.70
2023-05-13T23:31:20.762Z,10.70
2023-05-13T23:33:51.132Z,10.68
2023-05-13T23:36:23.843Z,10.72
2023-05-13T23:38:54.047Z,10.72
2023-05-13T23:41:24.155Z,10.67
2023-05-13T23:43:54.236Z,10.69
2023-05-13T23:46:24.597Z,10.68
2023-05-13T23:48:54.871Z,10.65
2023-05-13T23:51:27.695Z,10.69
2023-05-13T23:53:57.856Z,10.63
2023-05-13T23:56:27.963Z,10.69
2023-05-13T23:58:58.101Z,10.68
